Galveston, TX

12:03 AM CST on December 08, 2016 (GMT -0600)
Galveston.com | | Change Station
Active Advisory: Wind Advisory

Elev 36 ft 29.31 °N, 94.79 °W | Updated 4 seconds ago

Overcast
Overcast
58.1 °F
Feels Like 58.1 °F
N
11.0
Wind Variable Wind from NW
Gusts 20.0 mph

Today
High -- | Low -- °F
--% Chance of Precip.
Yesterday
High -- | Low -- °F
Precip. -- in
Pressure 30.14 in
Visibility 4.0 miles
Clouds Overcast 600 ft
Dew Point 57 °F
Humidity 96%
Rainfall 0.00 in
Snow Depth Not available.
7:01 AM 5:21 PM
First Quarter, 60% visible
METAR KGLS 080552Z AUTO 01013KT 4SM BR OVC006 16/14 A3014 RMK AO2 SLP206 T01560144 10172 20156 401940122 51013
Pressure 30.14 in
Visibility 4.0 miles
Clouds Overcast 600 ft
Dew Point 57 °F
Humidity 96%
Rainfall 0.00 in
Snow Depth Not available.
7:01 AM 5:21 PM
First Quarter, 60% visible
METAR KGLS 080552Z AUTO 01013KT 4SM BR OVC006 16/14 A3014 RMK AO2 SLP206 T01560144 10172 20156 401940122 51013

10-Day Weather Forecast

Almanac

Astronomy

Dec. 08, 2016 Rise Set
Actual Time
Civil Twilight
Nautical Twilight
Astronomical Twilight
Moon
Length of Visible Light
Length of Day
Tomorrow will be .
, % of the Moon is Illuminated

Today's Extremes

State Highs State Lows

Community

WunderPhotos

Upload Photos

1,956,259 photos uploaded!

WunderBlog® & News

Nearby

Air Quality

  Air Quality AQ Index Pollutant
Not available.

Snow Depth

Station Depth Elevation

Earthquake Activity

City Distance Mag. Time & Date
Minimum magnitude displayed is 2.5.

Coastal Water Temperatures

Place Temperature

Stations

Nearby Weather Stations

Station Location Temp. Windchill Dew Point Humidity Wind Precip. Elev Updated Type
                   

Watches & Warnings

Wind Advisory
Issued: 3:55 PM CST Dec. 7, 2016 – National Weather Service

... Wind Advisory in effect from 6 am to 6 PM CST Thursday...

The National Weather Service in Houston/Galveston has issued a
Wind Advisory... which is in effect from 6 am to 6 PM CST
Thursday.

* Event... north winds 20 to 30 mph with gusts of 35 mph.

* Timing... 6 am CST to 6 PM CST Thursday

* impact... windy conditions could impact travel on area highways
for high profile vehicles. Any outdoor tents... canopies or
bounce houses will need to be secured.

Precautionary/preparedness actions...

Drivers of vans... campers... trailers... and other high-profile
vehicles should be alert to the danger of these winds...
especially when driving along east to west oriented roads.